createdAt,value
2023-02-12T00:01:27.312Z,64.91
2023-02-12T00:03:55.901Z,64.99
2023-02-12T00:06:26.057Z,64.62
2023-02-12T00:08:55.932Z,64.73
2023-02-12T00:11:26.586Z,65.04
2023-02-12T00:13:58.034Z,65.36
2023-02-12T00:16:29.831Z,65.05
2023-02-12T00:18:59.337Z,65.68
2023-02-12T00:21:29.443Z,66.02
2023-02-12T00:23:58.373Z,65.67
2023-02-12T00:26:26.820Z,65.83
2023-02-12T00:28:55.837Z,65.89
2023-02-12T00:31:26.843Z,65.28
2023-02-12T00:33:59.366Z,64.62
2023-02-12T00:36:31.518Z,64.46
2023-02-12T00:39:01.521Z,64.40
2023-02-12T00:41:30.141Z,64.91
2023-02-12T00:43:58.906Z,64.47
2023-02-12T00:46:28.417Z,64.38
2023-02-12T00:48:57.007Z,64.73
2023-02-12T00:51:25.489Z,64.55
2023-02-12T00:53:55.463Z,64.80
2023-02-12T00:56:23.840Z,65.27
2023-02-12T00:58:52.330Z,65.08
2023-02-12T01:01:21.000Z,65.06
2023-02-12T01:03:49.389Z,65.17
2023-02-12T01:06:17.936Z,65.08
2023-02-12T01:08:51.815Z,65.28
2023-02-12T01:11:23.281Z,65.21
2023-02-12T01:13:51.800Z,65.68
2023-02-12T01:16:24.843Z,65.66
2023-02-12T01:18:55.938Z,65.87
2023-02-12T01:21:26.883Z,65.78
2023-02-12T01:23:56.680Z,65.80
2023-02-12T01:26:27.416Z,65.81
2023-02-12T01:28:58.379Z,65.73
2023-02-12T01:31:29.546Z,65.66
2023-02-12T01:33:59.962Z,65.61
2023-02-12T01:36:29.762Z,65.73
2023-02-12T01:38:59.390Z,65.62
2023-02-12T01:41:31.037Z,65.80
2023-02-12T01:44:12.404Z,65.95
2023-02-12T01:46:41.163Z,66.26
2023-02-12T01:49:13.406Z,65.84
2023-02-12T01:51:43.463Z,66.18
2023-02-12T01:54:17.180Z,66.25
2023-02-12T01:56:55.319Z,66.17
2023-02-12T01:59:24.614Z,66.23
2023-02-12T02:01:53.272Z,66.03
2023-02-12T02:04:27.349Z,65.69
2023-02-12T02:06:59.108Z,65.63
2023-02-12T02:09:29.799Z,65.64
2023-02-12T02:12:23.539Z,65.93
2023-02-12T02:14:54.056Z,66.31
2023-02-12T02:17:37.792Z,66.27
2023-02-12T02:20:42.951Z,66.39
2023-02-12T02:23:39.767Z,66.85
2023-02-12T02:26:29.316Z,66.92
2023-02-12T02:29:12.911Z,67.02
2023-02-12T02:31:45.235Z,66.94
2023-02-12T02:34:21.044Z,66.87
2023-02-12T02:37:00.813Z,66.98
2023-02-12T02:39:38.820Z,66.70
2023-02-12T02:42:12.578Z,66.27
2023-02-12T02:44:49.467Z,66.48
2023-02-12T02:47:22.792Z,66.64
2023-02-12T02:49:55.838Z,66.90
2023-02-12T02:52:35.350Z,66.95
2023-02-12T02:55:08.049Z,66.92
2023-02-12T02:57:43.047Z,67.00
2023-02-12T03:00:17.048Z,67.36
2023-02-12T03:02:53.721Z,67.02
2023-02-12T03:05:28.062Z,66.99
2023-02-12T03:08:04.523Z,66.92
2023-02-12T03:10:37.772Z,67.03
2023-02-12T03:13:10.064Z,67.15
2023-02-12T03:15:42.493Z,67.05
2023-02-12T03:18:19.610Z,67.12
2023-02-12T03:20:58.519Z,67.23
2023-02-12T03:23:39.389Z,66.86
2023-02-12T03:26:15.299Z,66.33
2023-02-12T03:28:43.705Z,66.23
2023-02-12T03:31:21.205Z,66.36
2023-02-12T03:34:01.009Z,66.62
2023-02-12T03:36:38.888Z,66.40
2023-02-12T03:39:15.473Z,66.87
2023-02-12T03:41:48.701Z,66.63
2023-02-12T03:44:22.650Z,66.67
2023-02-12T03:47:01.911Z,67.01
2023-02-12T03:49:36.692Z,66.86
2023-02-12T03:52:06.069Z,66.89
2023-02-12T03:54:34.895Z,66.92
2023-02-12T03:57:08.736Z,66.89
2023-02-12T03:59:39.400Z,67.05
2023-02-12T04:02:09.521Z,66.70
2023-02-12T04:04:40.060Z,66.88
2023-02-12T04:07:08.733Z,66.80
2023-02-12T04:09:37.228Z,67.22
2023-02-12T04:12:22.841Z,67.01
2023-02-12T04:14:56.600Z,67.12
2023-02-12T04:17:36.486Z,67.19
2023-02-12T04:20:17.223Z,67.02
2023-02-12T04:22:54.581Z,67.02
2023-02-12T04:25:33.888Z,67.33
2023-02-12T04:28:10.443Z,67.23
2023-02-12T04:30:44.210Z,66.38
2023-02-12T04:33:19.594Z,67.01
2023-02-12T04:35:54.414Z,66.39
2023-02-12T04:38:28.080Z,66.68
2023-02-12T04:40:57.236Z,66.76
2023-02-12T04:43:29.933Z,66.57
2023-02-12T04:45:58.698Z,66.43
2023-02-12T04:48:27.331Z,66.69
2023-02-12T04:50:57.294Z,66.38
2023-02-12T04:53:27.960Z,66.35
2023-02-12T04:55:56.884Z,66.79
2023-02-12T04:58:25.506Z,66.51
2023-02-12T05:00:54.595Z,66.80
2023-02-12T05:03:23.087Z,66.68
2023-02-12T05:05:51.444Z,66.67
2023-02-12T05:08:21.243Z,66.58
2023-02-12T05:10:49.653Z,66.44
2023-02-12T05:13:18.001Z,66.55
2023-02-12T05:15:46.468Z,66.68
2023-02-12T05:18:17.312Z,66.73
2023-02-12T05:20:47.741Z,66.94
2023-02-12T05:23:16.095Z,66.99
2023-02-12T05:25:47.423Z,66.99
2023-02-12T05:28:15.936Z,67.23
2023-02-12T05:30:44.446Z,66.82
2023-02-12T05:33:12.957Z,66.63
2023-02-12T05:35:41.324Z,66.38
2023-02-12T05:38:09.773Z,66.09
2023-02-12T05:40:40.387Z,66.39
2023-02-12T05:43:10.489Z,66.80
2023-02-12T05:45:41.302Z,66.78
2023-02-12T05:48:09.690Z,66.72
2023-02-12T05:50:38.287Z,67.10
2023-02-12T05:53:09.621Z,67.30
2023-02-12T05:55:38.023Z,67.00
2023-02-12T05:58:06.452Z,67.16
2023-02-12T06:00:36.279Z,67.08
2023-02-12T06:03:04.790Z,67.53
2023-02-12T06:05:33.221Z,67.29
2023-02-12T06:08:01.561Z,67.17
2023-02-12T06:10:30.026Z,67.32
2023-02-12T06:12:58.520Z,67.28
2023-02-12T06:15:26.934Z,67.44
2023-02-12T06:17:56.721Z,67.33
2023-02-12T06:20:25.166Z,66.90
2023-02-12T06:22:53.520Z,66.38
2023-02-12T06:25:22.135Z,66.02
2023-02-12T06:27:50.500Z,65.96
2023-02-12T06:30:19.151Z,65.82
2023-02-12T06:32:50.832Z,65.70
2023-02-12T06:35:20.639Z,65.93
2023-02-12T06:37:48.966Z,66.31
2023-02-12T06:40:17.936Z,66.67
2023-02-12T06:42:46.226Z,67.16
2023-02-12T06:45:14.787Z,67.39
2023-02-12T06:47:43.137Z,67.04
2023-02-12T06:50:12.380Z,66.64
2023-02-12T06:52:42.109Z,67.13
2023-02-12T06:55:10.641Z,66.86
2023-02-12T06:57:38.978Z,66.95
2023-02-12T07:00:08.677Z,66.93
2023-02-12T07:02:39.007Z,66.96
2023-02-12T07:05:07.994Z,67.61
2023-02-12T07:07:36.344Z,67.24
2023-02-12T07:10:06.766Z,67.45
2023-02-12T07:12:35.256Z,67.24
2023-02-12T07:15:03.890Z,66.99
2023-02-12T07:17:32.456Z,67.10
2023-02-12T07:20:00.865Z,66.66
2023-02-12T07:22:29.201Z,66.50
2023-02-12T07:24:57.581Z,66.32
2023-02-12T07:27:27.401Z,66.21
2023-02-12T07:29:55.903Z,66.57
2023-02-12T07:32:26.755Z,66.52
2023-02-12T07:34:55.359Z,66.56
2023-02-12T07:37:23.855Z,66.72
2023-02-12T07:39:52.517Z,66.62
2023-02-12T07:42:21.279Z,66.80
2023-02-12T07:44:52.781Z,67.07
2023-02-12T07:47:21.277Z,67.63
2023-02-12T07:49:49.633Z,67.93
2023-02-12T07:52:18.047Z,67.52
2023-02-12T07:54:46.408Z,68.27
2023-02-12T07:57:14.940Z,68.03
2023-02-12T07:59:43.342Z,67.85
2023-02-12T08:02:13.257Z,67.50
2023-02-12T08:04:41.721Z,66.77
2023-02-12T08:07:10.100Z,65.86
2023-02-12T08:09:38.446Z,64.57
2023-02-12T08:12:07.193Z,62.75
2023-02-12T08:14:35.629Z,62.23
2023-02-12T08:17:03.961Z,61.60
2023-02-12T08:19:33.724Z,61.10
2023-02-12T08:22:03.368Z,61.61
2023-02-12T08:24:31.869Z,61.09
2023-02-12T08:27:00.411Z,59.86
2023-02-12T08:29:30.494Z,59.01
2023-02-12T08:32:00.753Z,58.32
2023-02-12T08:34:32.345Z,57.92
2023-02-12T08:37:02.976Z,57.16
2023-02-12T08:39:31.928Z,57.74
2023-02-12T08:42:01.669Z,57.71
2023-02-12T08:44:30.473Z,57.23
2023-02-12T08:46:58.896Z,56.33
2023-02-12T08:49:29.078Z,56.78
2023-02-12T08:51:59.700Z,55.20
2023-02-12T08:54:31.470Z,55.80
2023-02-12T08:57:02.182Z,56.34
2023-02-12T08:59:31.411Z,55.92
2023-02-12T09:02:01.251Z,56.42
2023-02-12T09:04:30.708Z,56.04
2023-02-12T09:06:59.361Z,56.26
2023-02-12T09:09:27.868Z,56.25
2023-02-12T09:11:57.858Z,57.02
2023-02-12T09:14:26.351Z,56.93
2023-02-12T09:16:55.175Z,56.88
2023-02-12T09:19:24.037Z,56.80
2023-02-12T09:21:55.816Z,55.71
2023-02-12T09:24:25.335Z,55.85
2023-02-12T09:26:53.692Z,55.51
2023-02-12T09:29:23.743Z,54.65
2023-02-12T09:31:52.344Z,54.05
2023-02-12T09:34:20.951Z,54.08
2023-02-12T09:36:49.581Z,54.08
2023-02-12T09:39:18.345Z,54.26
2023-02-12T09:42:22.823Z,53.38
2023-02-12T09:45:03.961Z,53.04
2023-02-12T09:47:39.562Z,53.52
2023-02-12T09:50:21.482Z,52.72
2023-02-12T09:52:50.765Z,52.40
2023-02-12T09:55:20.936Z,52.79
2023-02-12T09:57:49.532Z,51.89
2023-02-12T10:00:25.514Z,51.79
2023-02-12T10:02:55.378Z,51.50
2023-02-12T10:05:28.503Z,51.96
2023-02-12T10:08:16.654Z,51.37
2023-02-12T10:10:52.930Z,52.00
2023-02-12T10:13:37.337Z,51.27
2023-02-12T10:16:14.145Z,50.61
2023-02-12T10:19:05.292Z,50.20
2023-02-12T10:21:45.143Z,50.86
2023-02-12T10:24:29.025Z,50.38
2023-02-12T10:26:59.876Z,49.61
2023-02-12T10:29:35.352Z,50.02
2023-02-12T10:32:09.166Z,48.89
2023-02-12T10:34:38.755Z,50.03
2023-02-12T10:37:19.082Z,48.95
2023-02-12T10:39:51.976Z,49.58
2023-02-12T10:42:28.135Z,48.61
2023-02-12T10:44:56.560Z,48.47
2023-02-12T10:47:26.947Z,47.18
2023-02-12T10:49:59.388Z,46.02
2023-02-12T10:52:40.529Z,45.78
2023-02-12T10:55:27.264Z,45.30
2023-02-12T10:57:56.394Z,45.45
2023-02-12T11:00:30.256Z,45.80
2023-02-12T11:03:20.526Z,45.05
2023-02-12T11:05:49.810Z,44.72
2023-02-12T11:08:31.698Z,44.41
2023-02-12T11:11:07.938Z,44.90
2023-02-12T11:13:37.299Z,45.06
2023-02-12T11:16:06.572Z,44.73
2023-02-12T11:18:37.524Z,44.25
2023-02-12T11:21:07.777Z,44.23
2023-02-12T11:23:38.345Z,43.77
2023-02-12T11:26:09.139Z,43.58
2023-02-12T11:28:38.761Z,43.71
2023-02-12T11:31:23.542Z,42.32
2023-02-12T11:34:09.737Z,42.42
2023-02-12T11:36:40.227Z,41.94
2023-02-12T11:39:21.412Z,41.92
2023-02-12T11:41:54.328Z,41.90
2023-02-12T11:44:26.619Z,41.58
2023-02-12T11:46:59.867Z,40.21
2023-02-12T11:49:34.162Z,40.56
2023-02-12T11:52:05.825Z,40.99
2023-02-12T11:54:41.089Z,40.67
2023-02-12T11:57:32.487Z,40.61
2023-02-12T12:00:02.821Z,39.97
2023-02-12T12:02:38.453Z,39.91
2023-02-12T12:05:13.271Z,39.18
2023-02-12T12:07:46.020Z,39.09
2023-02-12T12:10:21.420Z,39.04
2023-02-12T12:12:55.364Z,38.91
2023-02-12T12:15:44.868Z,38.57
2023-02-12T12:18:51.830Z,37.61
2023-02-12T12:21:29.691Z,34.70
2023-02-12T12:24:02.188Z,34.60
2023-02-12T12:26:34.639Z,34.16
2023-02-12T12:29:07.444Z,33.25
2023-02-12T12:31:39.361Z,32.74
2023-02-12T12:34:11.525Z,32.94
2023-02-12T12:37:04.814Z,33.38
2023-02-12T12:39:37.873Z,33.25
2023-02-12T12:42:40.203Z,32.74
2023-02-12T12:45:21.133Z,32.69
2023-02-12T12:48:04.968Z,32.40
2023-02-12T12:50:49.584Z,32.18
2023-02-12T12:53:33.388Z,32.81
2023-02-12T12:56:37.362Z,32.86
2023-02-12T12:59:47.766Z,33.05
2023-02-12T13:02:43.740Z,33.13
2023-02-12T13:05:36.990Z,33.55
2023-02-12T13:08:12.767Z,33.13
2023-02-12T13:10:50.037Z,33.18
2023-02-12T13:13:32.547Z,33.06
2023-02-12T13:16:10.538Z,33.27
2023-02-12T13:18:51.831Z,32.40
2023-02-12T13:21:32.202Z,32.22
2023-02-12T13:24:08.092Z,32.35
2023-02-12T13:26:48.577Z,31.22
2023-02-12T13:29:21.808Z,31.65
2023-02-12T13:31:56.350Z,30.96
2023-02-12T13:34:30.039Z,30.53
2023-02-12T13:37:01.402Z,31.26
2023-02-12T13:39:34.297Z,31.88
2023-02-12T13:42:15.634Z,32.26
2023-02-12T13:44:56.556Z,32.90
2023-02-12T13:47:37.751Z,33.17
2023-02-12T13:50:15.509Z,32.43
2023-02-12T13:52:50.951Z,32.32
2023-02-12T13:55:27.180Z,31.71
2023-02-12T13:58:34.955Z,32.40
2023-02-12T14:01:07.833Z,31.71
2023-02-12T14:03:37.496Z,31.75
2023-02-12T14:06:12.607Z,31.58
2023-02-12T14:08:43.775Z,32.01
2023-02-12T14:11:14.953Z,31.88
2023-02-12T14:13:55.210Z,31.16
2023-02-12T14:16:41.571Z,31.61
2023-02-12T14:19:38.645Z,31.67
2023-02-12T14:22:13.432Z,31.84
2023-02-12T14:24:50.593Z,31.14
2023-02-12T14:27:30.563Z,31.26
2023-02-12T14:30:22.847Z,31.95
2023-02-12T14:33:28.962Z,32.90
2023-02-12T14:36:18.665Z,32.56
2023-02-12T14:39:03.934Z,32.25
2023-02-12T14:41:42.000Z,32.40
2023-02-12T14:44:47.327Z,31.96
2023-02-12T14:47:52.304Z,32.72
2023-02-12T14:50:50.656Z,32.24
2023-02-12T14:53:29.149Z,33.53
2023-02-12T14:55:59.010Z,32.61
2023-02-12T14:58:31.671Z,32.72
2023-02-12T15:01:03.417Z,33.33
2023-02-12T15:03:43.162Z,32.56
2023-02-12T15:06:17.988Z,33.70
2023-02-12T15:08:53.351Z,33.94
2023-02-12T15:11:28.271Z,36.14
2023-02-12T15:14:01.553Z,36.80
2023-02-12T15:16:37.032Z,37.07
2023-02-12T15:19:15.670Z,37.19
2023-02-12T15:21:46.446Z,37.36
2023-02-12T15:24:22.529Z,37.10
2023-02-12T15:26:53.123Z,37.46
2023-02-12T15:29:25.636Z,37.86
2023-02-12T15:31:57.155Z,37.77
2023-02-12T15:34:29.322Z,37.98
2023-02-12T15:37:04.169Z,38.04
2023-02-12T15:39:41.138Z,38.08
2023-02-12T15:42:25.143Z,38.22
2023-02-12T15:44:53.624Z,38.62
2023-02-12T15:47:26.347Z,38.75
2023-02-12T15:50:01.135Z,39.23
2023-02-12T15:52:35.957Z,39.25
2023-02-12T15:55:06.422Z,39.42
2023-02-12T15:57:35.244Z,39.61
2023-02-12T16:00:10.362Z,39.33
2023-02-12T16:02:41.698Z,39.67
2023-02-12T16:05:16.986Z,39.64
2023-02-12T16:07:47.931Z,40.06
2023-02-12T16:10:19.460Z,40.43
2023-02-12T16:12:49.533Z,40.40
2023-02-12T16:15:30.961Z,40.29
2023-02-12T16:18:04.311Z,40.57
2023-02-12T16:20:33.430Z,40.69
2023-02-12T16:23:07.577Z,41.04
2023-02-12T16:25:36.325Z,41.47
2023-02-12T16:28:08.005Z,41.71
2023-02-12T16:30:39.290Z,41.89
2023-02-12T16:33:34.253Z,42.11
2023-02-12T16:36:04.411Z,42.62
2023-02-12T16:38:46.206Z,42.54
2023-02-12T16:41:27.281Z,42.76
2023-02-12T16:44:27.401Z,43.00
2023-02-12T16:46:57.648Z,43.50
2023-02-12T16:49:27.641Z,43.79
2023-02-12T16:52:28.799Z,43.79
2023-02-12T16:54:59.019Z,44.34
2023-02-12T16:57:27.402Z,44.46
2023-02-12T16:59:55.939Z,44.73
2023-02-12T17:02:24.470Z,44.71
2023-02-12T17:04:54.599Z,45.15
2023-02-12T17:07:28.293Z,45.00
2023-02-12T17:09:56.724Z,45.27
2023-02-12T17:12:27.696Z,45.86
2023-02-12T17:14:56.163Z,46.24
2023-02-12T17:17:24.508Z,46.47
2023-02-12T17:19:53.372Z,46.89
2023-02-12T17:22:24.546Z,46.88
2023-02-12T17:24:54.817Z,46.90
2023-02-12T17:27:24.437Z,48.01
2023-02-12T17:29:54.315Z,47.93
2023-02-12T17:32:24.629Z,47.84
2023-02-12T17:34:53.220Z,48.47
2023-02-12T17:37:22.388Z,47.93
2023-02-12T17:39:50.860Z,48.41
2023-02-12T17:42:19.637Z,49.70
2023-02-12T17:44:48.049Z,49.55
2023-02-12T17:47:17.815Z,49.93
2023-02-12T17:49:46.191Z,50.28
2023-02-12T17:52:15.784Z,50.82
2023-02-12T17:54:46.006Z,50.93
2023-02-12T17:57:15.098Z,51.71
2023-02-12T17:59:44.653Z,51.76
2023-02-12T18:02:13.601Z,52.24
2023-02-12T18:04:43.699Z,52.52
2023-02-12T18:07:12.317Z,52.59
2023-02-12T18:09:40.853Z,53.24
2023-02-12T18:12:09.564Z,53.81
2023-02-12T18:14:37.961Z,54.35
2023-02-12T18:17:06.385Z,54.94
2023-02-12T18:19:34.886Z,54.63
2023-02-12T18:22:05.011Z,55.63
2023-02-12T18:24:35.123Z,55.43
2023-02-12T18:27:03.585Z,55.42
2023-02-12T18:29:32.433Z,55.91
2023-02-12T18:32:00.869Z,55.22
2023-02-12T18:34:29.644Z,55.33
2023-02-12T18:36:58.128Z,55.22
2023-02-12T18:39:29.406Z,55.09
2023-02-12T18:41:57.858Z,54.94
2023-02-12T18:44:26.243Z,54.88
2023-02-12T18:46:54.842Z,54.91
2023-02-12T18:49:23.193Z,55.34
2023-02-12T18:51:51.641Z,55.86
2023-02-12T18:54:20.068Z,56.09
2023-02-12T18:56:52.748Z,55.47
2023-02-12T18:59:22.373Z,55.95
2023-02-12T19:01:51.890Z,56.21
2023-02-12T19:04:23.892Z,56.35
2023-02-12T19:06:54.586Z,55.87
2023-02-12T19:09:24.958Z,56.43
2023-02-12T19:11:56.899Z,56.58
2023-02-12T19:14:27.326Z,56.28
2023-02-12T19:16:55.830Z,57.26
2023-02-12T19:19:24.709Z,57.14
2023-02-12T19:21:53.157Z,58.06
2023-02-12T19:24:21.846Z,57.74
2023-02-12T19:26:53.007Z,58.24
2023-02-12T19:29:22.848Z,59.02
2023-02-12T19:31:51.347Z,58.59
2023-02-12T19:34:23.424Z,58.72
2023-02-12T19:36:52.560Z,59.18
2023-02-12T19:39:23.050Z,58.87
2023-02-12T19:41:52.197Z,59.27
2023-02-12T19:44:23.715Z,59.09
2023-02-12T19:46:52.853Z,59.14
2023-02-12T19:49:22.920Z,58.82
2023-02-12T19:51:52.010Z,59.62
2023-02-12T19:54:22.351Z,59.18
2023-02-12T19:56:51.408Z,59.63
2023-02-12T19:59:21.776Z,60.53
2023-02-12T20:01:52.262Z,60.35
2023-02-12T20:04:23.147Z,60.62
2023-02-12T20:06:52.470Z,61.01
2023-02-12T20:09:22.507Z,60.93
2023-02-12T20:11:51.586Z,60.89
2023-02-12T20:14:22.883Z,60.90
2023-02-12T20:16:55.845Z,60.98
2023-02-12T20:19:27.263Z,60.64
2023-02-12T20:21:57.576Z,60.23
2023-02-12T20:24:29.146Z,60.63
2023-02-12T20:26:59.402Z,60.78
2023-02-12T20:29:28.106Z,60.60
2023-02-12T20:31:58.081Z,61.23
2023-02-12T20:34:26.606Z,61.41
2023-02-12T20:36:55.205Z,61.47
2023-02-12T20:39:24.483Z,61.54
2023-02-12T20:41:53.412Z,62.07
2023-02-12T20:44:22.796Z,62.00
2023-02-12T20:46:56.487Z,61.86
2023-02-12T20:49:27.173Z,61.97
2023-02-12T20:51:55.791Z,62.19
2023-02-12T20:54:24.288Z,62.42
2023-02-12T20:56:52.749Z,62.68
2023-02-12T20:59:21.166Z,62.90
2023-02-12T21:01:49.969Z,63.18
2023-02-12T21:04:19.759Z,63.15
2023-02-12T21:06:49.680Z,63.22
2023-02-12T21:09:18.923Z,63.28
2023-02-12T21:11:48.172Z,62.89
2023-02-12T21:14:22.351Z,62.58
2023-02-12T21:16:52.572Z,62.71
2023-02-12T21:19:21.536Z,62.45
2023-02-12T21:21:51.732Z,62.62
2023-02-12T21:24:23.231Z,63.22
2023-02-12T21:26:52.449Z,63.19
2023-02-12T21:29:21.504Z,63.23
2023-02-12T21:31:51.540Z,63.80
2023-02-12T21:34:22.789Z,64.14
2023-02-12T21:36:55.553Z,64.16
2023-02-12T21:39:27.445Z,64.30
2023-02-12T21:41:57.998Z,64.19
2023-02-12T21:44:27.027Z,64.21
2023-02-12T21:46:56.191Z,64.24
2023-02-12T21:49:28.063Z,64.37
2023-02-12T21:52:02.264Z,64.41
2023-02-12T21:54:31.901Z,64.60
2023-02-12T21:57:01.225Z,65.19
2023-02-12T21:59:32.494Z,64.82
2023-02-12T22:02:02.224Z,65.17
2023-02-12T22:04:31.212Z,65.22
2023-02-12T22:07:03.481Z,64.48
2023-02-12T22:09:32.578Z,63.79
2023-02-12T22:12:02.116Z,63.96
2023-02-12T22:14:32.387Z,63.41
2023-02-12T22:17:00.804Z,63.60
2023-02-12T22:19:29.661Z,63.58
2023-02-12T22:21:58.167Z,63.90
2023-02-12T22:24:28.112Z,63.94
2023-02-12T22:26:56.803Z,64.14
2023-02-12T22:29:25.236Z,63.89
2023-02-12T22:31:53.777Z,63.91
2023-02-12T22:34:22.262Z,64.42
2023-02-12T22:36:50.761Z,64.77
2023-02-12T22:39:20.221Z,64.25
2023-02-12T22:41:50.165Z,64.83
2023-02-12T22:44:21.206Z,64.20
2023-02-12T22:46:50.536Z,65.09
2023-02-12T22:49:19.226Z,64.83
2023-02-12T22:51:47.666Z,64.62
2023-02-12T22:54:17.527Z,64.63
2023-02-12T22:56:46.456Z,64.21
2023-02-12T22:59:16.249Z,64.55
2023-02-12T23:01:45.015Z,64.43
2023-02-12T23:04:16.788Z,64.74
2023-02-12T23:06:45.952Z,64.70
2023-02-12T23:09:16.951Z,64.25
2023-02-12T23:11:45.401Z,64.60
2023-02-12T23:14:16.376Z,64.33
2023-02-12T23:16:45.061Z,64.53
2023-02-12T23:19:13.765Z,64.45
2023-02-12T23:21:42.164Z,64.09
2023-02-12T23:24:14.022Z,64.10
2023-02-12T23:26:42.448Z,64.63
2023-02-12T23:29:10.912Z,64.78
2023-02-12T23:31:41.031Z,65.37
2023-02-12T23:34:09.698Z,64.90
2023-02-12T23:36:38.094Z,65.04
2023-02-12T23:39:07.128Z,65.28
2023-02-12T23:41:35.551Z,65.38
2023-02-12T23:44:04.326Z,64.86
2023-02-12T23:46:33.108Z,65.35
2023-02-12T23:49:03.062Z,64.97
2023-02-12T23:51:31.437Z,65.35
2023-02-12T23:53:59.886Z,66.07
2023-02-12T23:56:28.609Z,66.38
2023-02-12T23:58:57.929Z,66.47
